sensor_id;sensor_type;location;lat;lon;timestamp;pressure;altitude;pressure_sealevel;temperature;humidity
19210;BME280;9738;51.654;14.238;2023-06-10T00:01:45;100428.56;;;16.72;100.00
19210;BME280;9738;51.654;14.238;2023-06-10T00:04:13;100424.56;;;16.68;100.00
19210;BME280;9738;51.654;14.238;2023-06-10T00:06:40;100420.38;;;16.66;100.00
19210;BME280;9738;51.654;14.238;2023-06-10T00:09:07;100426.38;;;16.61;100.00
19210;BME280;9738;51.654;14.238;2023-06-10T00:11:37;100427.97;;;16.56;100.00
19210;BME280;9738;51.654;14.238;2023-06-10T00:14:03;100419.59;;;16.51;100.00
19210;BME280;9738;51.654;14.238;2023-06-10T00:16:29;100422.84;;;16.46;100.00
19210;BME280;9738;51.654;14.238;2023-06-10T00:18:56;100420.16;;;16.46;100.00
19210;BME280;9738;51.654;14.238;2023-06-10T00:21:35;100420.34;;;16.44;100.00
19210;BME280;9738;51.654;14.238;2023-06-10T00:24:04;100423.25;;;16.43;100.00
19210;BME280;9738;51.654;14.238;2023-06-10T00:26:31;100407.28;;;16.41;100.00
19210;BME280;9738;51.654;14.238;2023-06-10T00:28:57;100411.81;;;16.41;100.00
19210;BME280;9738;51.654;14.238;2023-06-10T00:31:24;100410.13;;;16.40;100.00
19210;BME280;9738;51.654;14.238;2023-06-10T00:33:52;100415.53;;;16.40;100.00
19210;BME280;9738;51.654;14.238;2023-06-10T00:36:18;100420.91;;;16.40;100.00
19210;BME280;9738;51.654;14.238;2023-06-10T00:38:44;100410.13;;;16.40;100.00
19210;BME280;9738;51.654;14.238;2023-06-10T00:41:10;100419.25;;;16.39;100.00
19210;BME280;9738;51.654;14.238;2023-06-10T00:43:35;100422.16;;;16.37;100.00
19210;BME280;9738;51.654;14.238;2023-06-10T00:46:02;100416.94;;;16.36;100.00
19210;BME280;9738;51.654;14.238;2023-06-10T00:48:28;100426.03;;;16.35;100.00
19210;BME280;9738;51.654;14.238;2023-06-10T00:50:54;100421.69;;;16.34;100.00
19210;BME280;9738;51.654;14.238;2023-06-10T00:53:22;100419.38;;;16.31;100.00
19210;BME280;9738;51.654;14.238;2023-06-10T00:55:48;100424.75;;;16.31;100.00
19210;BME280;9738;51.654;14.238;2023-06-10T00:58:14;100430.50;;;16.28;100.00
19210;BME280;9738;51.654;14.238;2023-06-10T01:00:41;100422.81;;;16.25;100.00
19210;BME280;9738;51.654;14.238;2023-06-10T01:03:07;100437.31;;;16.24;100.00
19210;BME280;9738;51.654;14.238;2023-06-10T01:05:34;100425.25;;;16.19;100.00
19210;BME280;9738;51.654;14.238;2023-06-10T01:10:56;100434.91;;;16.14;100.00
19210;BME280;9738;51.654;14.238;2023-06-10T01:13:25;100433.44;;;16.11;100.00
19210;BME280;9738;51.654;14.238;2023-06-10T01:15:58;100434.19;;;16.05;100.00
19210;BME280;9738;51.654;14.238;2023-06-10T01:18:32;100443.66;;;16.01;100.00
19210;BME280;9738;51.654;14.238;2023-06-10T01:20:58;100442.38;;;15.97;100.00
19210;BME280;9738;51.654;14.238;2023-06-10T01:23:24;100437.53;;;15.92;100.00
19210;BME280;9738;51.654;14.238;2023-06-10T01:25:59;100439.75;;;15.89;100.00
19210;BME280;9738;51.654;14.238;2023-06-10T01:34:01;100444.59;;;15.79;100.00
19210;BME280;9738;51.654;14.238;2023-06-10T01:36:31;100437.91;;;15.75;100.00
19210;BME280;9738;51.654;14.238;2023-06-10T01:38:58;100443.66;;;15.72;100.00
19210;BME280;9738;51.654;14.238;2023-06-10T01:41:26;100451.47;;;15.66;100.00
19210;BME280;9738;51.654;14.238;2023-06-10T01:43:52;100456.34;;;15.63;100.00
19210;BME280;9738;51.654;14.238;2023-06-10T01:46:17;100453.72;;;15.55;100.00
19210;BME280;9738;51.654;14.238;2023-06-10T01:48:46;100466.06;;;15.49;100.00
19210;BME280;9738;51.654;14.238;2023-06-10T01:51:11;100469.97;;;15.47;100.00
19210;BME280;9738;51.654;14.238;2023-06-10T01:53:37;100465.13;;;15.42;100.00
19210;BME280;9738;51.654;14.238;2023-06-10T01:56:04;100479.75;;;15.39;100.00
19210;BME280;9738;51.654;14.238;2023-06-10T01:58:29;100481.69;;;15.31;100.00
19210;BME280;9738;51.654;14.238;2023-06-10T02:00:56;100486.78;;;15.26;100.00
19210;BME280;9738;51.654;14.238;2023-06-10T02:03:22;100488.63;;;15.25;100.00
19210;BME280;9738;51.654;14.238;2023-06-10T02:05:48;100490.66;;;15.23;100.00
19210;BME280;9738;51.654;14.238;2023-06-10T02:08:14;100498.44;;;15.18;100.00
19210;BME280;9738;51.654;14.238;2023-06-10T02:10:40;100496.13;;;15.15;100.00
19210;BME280;9738;51.654;14.238;2023-06-10T02:13:06;100494.91;;;15.18;100.00
19210;BME280;9738;51.654;14.238;2023-06-10T02:15:32;100495.94;;;15.17;100.00
19210;BME280;9738;51.654;14.238;2023-06-10T02:17:59;100500.66;;;15.14;100.00
19210;BME280;9738;51.654;14.238;2023-06-10T02:20:26;100493.78;;;15.12;100.00
19210;BME280;9738;51.654;14.238;2023-06-10T02:22:51;100494.16;;;15.09;100.00
19210;BME280;9738;51.654;14.238;2023-06-10T02:25:18;100493.84;;;15.04;100.00
19210;BME280;9738;51.654;14.238;2023-06-10T02:27:43;100498.06;;;14.98;100.00
19210;BME280;9738;51.654;14.238;2023-06-10T02:30:10;100492.38;;;14.93;100.00
19210;BME280;9738;51.654;14.238;2023-06-10T02:32:36;100496.81;;;14.86;100.00
19210;BME280;9738;51.654;14.238;2023-06-10T02:35:02;100510.13;;;14.79;100.00
19210;BME280;9738;51.654;14.238;2023-06-10T02:37:28;100502.25;;;14.78;100.00
19210;BME280;9738;51.654;14.238;2023-06-10T02:39:55;100507.97;;;14.75;100.00
19210;BME280;9738;51.654;14.238;2023-06-10T02:42:20;100500.25;;;14.72;100.00
19210;BME280;9738;51.654;14.238;2023-06-10T02:44:46;100498.28;;;14.66;100.00
19210;BME280;9738;51.654;14.238;2023-06-10T02:47:12;100498.78;;;14.61;100.00
19210;BME280;9738;51.654;14.238;2023-06-10T02:49:38;100488.75;;;14.55;100.00
19210;BME280;9738;51.654;14.238;2023-06-10T02:52:04;100492.63;;;14.52;100.00
19210;BME280;9738;51.654;14.238;2023-06-10T02:54:30;100495.16;;;14.46;100.00
19210;BME280;9738;51.654;14.238;2023-06-10T02:56:56;100491.31;;;14.40;100.00
19210;BME280;9738;51.654;14.238;2023-06-10T02:59:22;100490.34;;;14.33;100.00
19210;BME280;9738;51.654;14.238;2023-06-10T03:01:48;100494.38;;;14.29;100.00
19210;BME280;9738;51.654;14.238;2023-06-10T03:04:14;100500.44;;;14.23;100.00
19210;BME280;9738;51.654;14.238;2023-06-10T03:06:40;100493.09;;;14.17;100.00
19210;BME280;9738;51.654;14.238;2023-06-10T03:09:11;100502.50;;;14.13;100.00
19210;BME280;9738;51.654;14.238;2023-06-10T03:11:37;100501.16;;;14.09;100.00
19210;BME280;9738;51.654;14.238;2023-06-10T03:14:03;100491.78;;;14.04;100.00
19210;BME280;9738;51.654;14.238;2023-06-10T03:16:29;100498.34;;;14.02;100.00
19210;BME280;9738;51.654;14.238;2023-06-10T03:18:55;100498.66;;;13.99;100.00
19210;BME280;9738;51.654;14.238;2023-06-10T03:21:21;100499.22;;;13.94;100.00
19210;BME280;9738;51.654;14.238;2023-06-10T03:23:48;100507.41;;;13.93;100.00
19210;BME280;9738;51.654;14.238;2023-06-10T03:26:13;100514.16;;;13.89;100.00
19210;BME280;9738;51.654;14.238;2023-06-10T03:28:41;100507.25;;;13.86;100.00
19210;BME280;9738;51.654;14.238;2023-06-10T03:31:07;100517.34;;;13.84;100.00
19210;BME280;9738;51.654;14.238;2023-06-10T03:33:33;100506.94;;;13.81;100.00
19210;BME280;9738;51.654;14.238;2023-06-10T03:35:59;100501.91;;;13.78;100.00
19210;BME280;9738;51.654;14.238;2023-06-10T03:38:25;100508.28;;;13.77;100.00
19210;BME280;9738;51.654;14.238;2023-06-10T03:40:51;100510.47;;;13.73;100.00
19210;BME280;9738;51.654;14.238;2023-06-10T03:43:17;100515.84;;;13.73;100.00
19210;BME280;9738;51.654;14.238;2023-06-10T03:45:43;100518.50;;;13.73;100.00
19210;BME280;9738;51.654;14.238;2023-06-10T03:48:09;100517.69;;;13.73;100.00
19210;BME280;9738;51.654;14.238;2023-06-10T03:50:35;100524.06;;;13.72;100.00
19210;BME280;9738;51.654;14.238;2023-06-10T03:53:02;100526.25;;;13.68;100.00
19210;BME280;9738;51.654;14.238;2023-06-10T03:55:28;100527.59;;;13.64;100.00
19210;BME280;9738;51.654;14.238;2023-06-10T03:57:53;100526.41;;;13.67;100.00
19210;BME280;9738;51.654;14.238;2023-06-10T04:00:20;100529.59;;;13.70;100.00
19210;BME280;9738;51.654;14.238;2023-06-10T04:02:47;100532.44;;;13.77;100.00
19210;BME280;9738;51.654;14.238;2023-06-10T04:05:16;100530.44;;;13.79;100.00
19210;BME280;9738;51.654;14.238;2023-06-10T04:07:42;100536.47;;;13.81;100.00
19210;BME280;9738;51.654;14.238;2023-06-10T04:10:10;100544.19;;;13.84;100.00
19210;BME280;9738;51.654;14.238;2023-06-10T04:12:37;100550.91;;;13.88;100.00
19210;BME280;9738;51.654;14.238;2023-06-10T04:15:04;100549.53;;;13.92;100.00
19210;BME280;9738;51.654;14.238;2023-06-10T04:17:30;100552.38;;;13.99;100.00
19210;BME280;9738;51.654;14.238;2023-06-10T04:19:57;100546.31;;;14.05;100.00
19210;BME280;9738;51.654;14.238;2023-06-10T04:22:25;100548.31;;;14.11;100.00
19210;BME280;9738;51.654;14.238;2023-06-10T04:24:51;100547.81;;;14.16;100.00
19210;BME280;9738;51.654;14.238;2023-06-10T04:27:17;100543.59;;;14.21;100.00
19210;BME280;9738;51.654;14.238;2023-06-10T04:29:43;100544.78;;;14.27;100.00
19210;BME280;9738;51.654;14.238;2023-06-10T04:32:09;100543.72;;;14.36;100.00
19210;BME280;9738;51.654;14.238;2023-06-10T04:34:35;100542.69;;;14.45;100.00
19210;BME280;9738;51.654;14.238;2023-06-10T04:37:01;100538.97;;;14.54;100.00
19210;BME280;9738;51.654;14.238;2023-06-10T04:39:27;100541.63;;;14.63;100.00
19210;BME280;9738;51.654;14.238;2023-06-10T04:41:53;100545.97;;;14.72;100.00
19210;BME280;9738;51.654;14.238;2023-06-10T04:44:19;100535.16;;;14.80;100.00
19210;BME280;9738;51.654;14.238;2023-06-10T04:46:45;100543.03;;;14.90;100.00
19210;BME280;9738;51.654;14.238;2023-06-10T04:49:11;100543.81;;;14.98;100.00
19210;BME280;9738;51.654;14.238;2023-06-10T04:51:40;100540.03;;;15.07;100.00
19210;BME280;9738;51.654;14.238;2023-06-10T04:54:06;100541.28;;;15.20;100.00
19210;BME280;9738;51.654;14.238;2023-06-10T04:56:32;100548.31;;;15.29;100.00
19210;BME280;9738;51.654;14.238;2023-06-10T04:58:59;100539.97;;;15.38;100.00
19210;BME280;9738;51.654;14.238;2023-06-10T05:01:25;100546.44;;;15.52;100.00
19210;BME280;9738;51.654;14.238;2023-06-10T05:03:51;100542.50;;;15.63;100.00
19210;BME280;9738;51.654;14.238;2023-06-10T05:06:18;100548.50;;;15.73;100.00
19210;BME280;9738;51.654;14.238;2023-06-10T05:08:43;100550.75;;;15.84;100.00
19210;BME280;9738;51.654;14.238;2023-06-10T05:11:09;100549.44;;;15.95;100.00
19210;BME280;9738;51.654;14.238;2023-06-10T05:13:36;100562.88;;;16.03;100.00
19210;BME280;9738;51.654;14.238;2023-06-10T05:16:01;100551.81;;;16.13;100.00
19210;BME280;9738;51.654;14.238;2023-06-10T05:18:27;100553.22;;;16.24;100.00
19210;BME280;9738;51.654;14.238;2023-06-10T05:20:54;100557.28;;;16.34;100.00
19210;BME280;9738;51.654;14.238;2023-06-10T05:23:20;100559.50;;;16.45;100.00
19210;BME280;9738;51.654;14.238;2023-06-10T05:25:46;100558.84;;;16.58;100.00
19210;BME280;9738;51.654;14.238;2023-06-10T05:28:12;100557.88;;;16.74;100.00
19210;BME280;9738;51.654;14.238;2023-06-10T05:30:38;100563.09;;;16.97;100.00
19210;BME280;9738;51.654;14.238;2023-06-10T05:33:04;100570.66;;;17.23;100.00
19210;BME280;9738;51.654;14.238;2023-06-10T05:35:31;100567.84;;;17.52;100.00
19210;BME280;9738;51.654;14.238;2023-06-10T05:37:56;100555.47;;;17.86;100.00
19210;BME280;9738;51.654;14.238;2023-06-10T05:40:22;100562.41;;;18.23;100.00
19210;BME280;9738;51.654;14.238;2023-06-10T05:42:49;100563.63;;;18.55;100.00
19210;BME280;9738;51.654;14.238;2023-06-10T05:45:15;100557.16;;;18.84;100.00
19210;BME280;9738;51.654;14.238;2023-06-10T05:47:41;100558.50;;;19.15;100.00
19210;BME280;9738;51.654;14.238;2023-06-10T05:50:08;100558.34;;;19.50;100.00
19210;BME280;9738;51.654;14.238;2023-06-10T05:52:35;100566.50;;;19.83;100.00
19210;BME280;9738;51.654;14.238;2023-06-10T05:55:02;100560.44;;;20.07;100.00
19210;BME280;9738;51.654;14.238;2023-06-10T05:57:29;100558.72;;;20.39;100.00
19210;BME280;9738;51.654;14.238;2023-06-10T05:59:55;100560.31;;;20.73;100.00
19210;BME280;9738;51.654;14.238;2023-06-10T06:02:21;100557.28;;;21.01;100.00
19210;BME280;9738;51.654;14.238;2023-06-10T06:04:47;100554.41;;;21.28;100.00
19210;BME280;9738;51.654;14.238;2023-06-10T06:07:13;100554.41;;;21.59;100.00
19210;BME280;9738;51.654;14.238;2023-06-10T06:09:38;100560.88;;;21.90;100.00
19210;BME280;9738;51.654;14.238;2023-06-10T06:12:05;100557.75;;;22.11;100.00
19210;BME280;9738;51.654;14.238;2023-06-10T06:14:32;100559.44;;;22.31;100.00
19210;BME280;9738;51.654;14.238;2023-06-10T06:17:02;100558.16;;;22.52;100.00
19210;BME280;9738;51.654;14.238;2023-06-10T06:19:28;100559.75;;;22.78;100.00
19210;BME280;9738;51.654;14.238;2023-06-10T06:21:54;100564.19;;;23.09;100.00
19210;BME280;9738;51.654;14.238;2023-06-10T06:24:20;100562.53;;;23.38;100.00
19210;BME280;9738;51.654;14.238;2023-06-10T06:26:46;100564.03;;;23.64;100.00
19210;BME280;9738;51.654;14.238;2023-06-10T06:29:12;100566.56;;;23.89;100.00
19210;BME280;9738;51.654;14.238;2023-06-10T06:31:37;100568.59;;;24.17;82.20
19210;BME280;9738;51.654;14.238;2023-06-10T06:34:04;100567.78;;;24.40;76.10
19210;BME280;9738;51.654;14.238;2023-06-10T06:36:29;100572.13;;;24.64;75.45
19210;BME280;9738;51.654;14.238;2023-06-10T06:38:55;100562.56;;;24.90;72.67
19210;BME280;9738;51.654;14.238;2023-06-10T06:41:22;100564.50;;;25.18;72.01
19210;BME280;9738;51.654;14.238;2023-06-10T06:43:47;100568.69;;;25.38;70.35
19210;BME280;9738;51.654;14.238;2023-06-10T06:46:13;100565.97;;;25.54;66.72
19210;BME280;9738;51.654;14.238;2023-06-10T06:48:39;100561.69;;;25.75;68.47
19210;BME280;9738;51.654;14.238;2023-06-10T06:51:05;100575.81;;;25.84;65.86
19210;BME280;9738;51.654;14.238;2023-06-10T06:53:31;100570.91;;;26.03;65.91
19210;BME280;9738;51.654;14.238;2023-06-10T06:55:57;100569.16;;;26.13;65.03
19210;BME280;9738;51.654;14.238;2023-06-10T06:58:23;100565.75;;;26.23;63.00
19210;BME280;9738;51.654;14.238;2023-06-10T07:00:49;100573.06;;;26.39;63.82
19210;BME280;9738;51.654;14.238;2023-06-10T07:03:15;100572.31;;;26.61;62.57
19210;BME280;9738;51.654;14.238;2023-06-10T07:05:41;100575.31;;;26.81;62.24
19210;BME280;9738;51.654;14.238;2023-06-10T07:08:07;100575.69;;;26.90;60.04
19210;BME280;9738;51.654;14.238;2023-06-10T07:10:33;100579.72;;;27.04;60.03
19210;BME280;9738;51.654;14.238;2023-06-10T07:12:59;100586.22;;;27.20;58.92
19210;BME280;9738;51.654;14.238;2023-06-10T07:15:25;100586.53;;;27.24;57.50
19210;BME280;9738;51.654;14.238;2023-06-10T07:17:51;100586.28;;;27.25;57.62
19210;BME280;9738;51.654;14.238;2023-06-10T07:20:17;100586.13;;;27.37;58.38
19210;BME280;9738;51.654;14.238;2023-06-10T07:22:43;100581.88;;;27.51;55.74
19210;BME280;9738;51.654;14.238;2023-06-10T07:25:10;100587.69;;;27.60;57.60
19210;BME280;9738;51.654;14.238;2023-06-10T07:27:37;100591.06;;;27.67;57.93
19210;BME280;9738;51.654;14.238;2023-06-10T07:30:04;100590.97;;;27.84;56.04
19210;BME280;9738;51.654;14.238;2023-06-10T07:32:32;100595.28;;;28.07;56.36
19210;BME280;9738;51.654;14.238;2023-06-10T07:34:57;100592.22;;;28.03;53.16
19210;BME280;9738;51.654;14.238;2023-06-10T07:37:23;100587.66;;;28.19;56.72
19210;BME280;9738;51.654;14.238;2023-06-10T07:39:50;100593.75;;;28.26;52.36
19210;BME280;9738;51.654;14.238;2023-06-10T07:42:15;100591.56;;;28.28;53.03
19210;BME280;9738;51.654;14.238;2023-06-10T07:44:41;100591.78;;;28.21;52.42
19210;BME280;9738;51.654;14.238;2023-06-10T07:47:07;100592.75;;;28.37;54.90
19210;BME280;9738;51.654;14.238;2023-06-10T07:49:33;100602.50;;;28.60;53.46
19210;BME280;9738;51.654;14.238;2023-06-10T07:51:59;100598.66;;;28.61;50.50
19210;BME280;9738;51.654;14.238;2023-06-10T07:54:25;100596.22;;;28.65;52.08
19210;BME280;9738;51.654;14.238;2023-06-10T07:56:51;100608.78;;;28.50;50.02
19210;BME280;9738;51.654;14.238;2023-06-10T07:59:18;100603.00;;;28.52;53.24
19210;BME280;9738;51.654;14.238;2023-06-10T08:01:44;100598.97;;;28.70;52.64
19210;BME280;9738;51.654;14.238;2023-06-10T08:04:10;100600.47;;;28.93;50.80
19210;BME280;9738;51.654;14.238;2023-06-10T08:06:36;100610.88;;;28.91;48.56
19210;BME280;9738;51.654;14.238;2023-06-10T08:09:03;100607.63;;;28.94;50.63
19210;BME280;9738;51.654;14.238;2023-06-10T08:11:29;100603.28;;;29.08;51.48
19210;BME280;9738;51.654;14.238;2023-06-10T08:13:55;100608.53;;;29.10;47.70
19210;BME280;9738;51.654;14.238;2023-06-10T08:16:22;100611.00;;;29.11;47.49
19210;BME280;9738;51.654;14.238;2023-06-10T08:18:47;100604.63;;;29.00;47.56
19210;BME280;9738;51.654;14.238;2023-06-10T08:21:13;100609.75;;;28.87;48.46
19210;BME280;9738;51.654;14.238;2023-06-10T08:23:39;100605.69;;;28.94;48.00
19210;BME280;9738;51.654;14.238;2023-06-10T08:26:05;100603.75;;;28.90;48.24
19210;BME280;9738;51.654;14.238;2023-06-10T08:28:31;100612.88;;;29.00;49.38
19210;BME280;9738;51.654;14.238;2023-06-10T08:30:57;100609.63;;;29.08;48.37
19210;BME280;9738;51.654;14.238;2023-06-10T08:33:23;100613.50;;;29.18;48.72
19210;BME280;9738;51.654;14.238;2023-06-10T08:35:48;100609.69;;;29.39;48.93
19210;BME280;9738;51.654;14.238;2023-06-10T08:38:15;100606.19;;;29.54;48.59
19210;BME280;9738;51.654;14.238;2023-06-10T08:40:41;100613.03;;;29.51;47.43
19210;BME280;9738;51.654;14.238;2023-06-10T08:43:14;100615.28;;;29.59;47.30
19210;BME280;9738;51.654;14.238;2023-06-10T08:45:45;100613.09;;;29.72;47.56
19210;BME280;9738;51.654;14.238;2023-06-10T08:48:14;100613.63;;;29.79;46.70
19210;BME280;9738;51.654;14.238;2023-06-10T08:50:43;100617.22;;;29.84;46.57
19210;BME280;9738;51.654;14.238;2023-06-10T08:53:14;100624.06;;;30.02;48.53
19210;BME280;9738;51.654;14.238;2023-06-10T08:55:46;100615.31;;;30.10;45.83
19210;BME280;9738;51.654;14.238;2023-06-10T08:58:15;100617.75;;;30.27;45.93
19210;BME280;9738;51.654;14.238;2023-06-10T09:00:41;100623.56;;;30.26;45.42
19210;BME280;9738;51.654;14.238;2023-06-10T09:03:07;100620.22;;;30.08;45.15
19210;BME280;9738;51.654;14.238;2023-06-10T09:05:34;100619.16;;;30.04;44.91
19210;BME280;9738;51.654;14.238;2023-06-10T09:08:02;100626.28;;;30.00;44.88
19210;BME280;9738;51.654;14.238;2023-06-10T09:10:29;100614.16;;;30.01;43.38
19210;BME280;9738;51.654;14.238;2023-06-10T09:12:55;100613.91;;;30.18;43.14
19210;BME280;9738;51.654;14.238;2023-06-10T09:15:21;100607.25;;;30.34;43.19
19210;BME280;9738;51.654;14.238;2023-06-10T09:17:47;100609.78;;;30.26;41.52
19210;BME280;9738;51.654;14.238;2023-06-10T09:20:13;100606.19;;;30.20;42.41
19210;BME280;9738;51.654;14.238;2023-06-10T09:22:41;100607.56;;;30.38;43.08
19210;BME280;9738;51.654;14.238;2023-06-10T09:25:12;100604.19;;;30.61;43.91
19210;BME280;9738;51.654;14.238;2023-06-10T09:27:48;100604.16;;;30.77;42.28
19210;BME280;9738;51.654;14.238;2023-06-10T09:30:33;100609.63;;;30.87;40.91
19210;BME280;9738;51.654;14.238;2023-06-10T09:33:03;100598.56;;;30.92;40.91
19210;BME280;9738;51.654;14.238;2023-06-10T09:35:35;100607.91;;;31.01;40.38
19210;BME280;9738;51.654;14.238;2023-06-10T09:38:01;100605.19;;;30.91;41.19
19210;BME280;9738;51.654;14.238;2023-06-10T09:40:28;100596.97;;;30.86;40.67
19210;BME280;9738;51.654;14.238;2023-06-10T09:42:56;100597.47;;;30.93;39.99
19210;BME280;9738;51.654;14.238;2023-06-10T09:45:23;100598.53;;;30.97;40.34
19210;BME280;9738;51.654;14.238;2023-06-10T09:47:52;100615.13;;;30.92;39.24
19210;BME280;9738;51.654;14.238;2023-06-10T09:50:19;100605.16;;;31.01;39.12
19210;BME280;9738;51.654;14.238;2023-06-10T09:52:46;100607.31;;;31.09;39.73
19210;BME280;9738;51.654;14.238;2023-06-10T09:55:13;100600.66;;;31.15;38.57
19210;BME280;9738;51.654;14.238;2023-06-10T09:57:40;100599.84;;;31.15;38.66
19210;BME280;9738;51.654;14.238;2023-06-10T10:00:11;100603.50;;;31.05;38.29
19210;BME280;9738;51.654;14.238;2023-06-10T10:05:19;100602.28;;;31.27;37.27
19210;BME280;9738;51.654;14.238;2023-06-10T10:07:45;100597.88;;;31.31;39.35
19210;BME280;9738;51.654;14.238;2023-06-10T10:10:13;100606.91;;;31.36;37.75
19210;BME280;9738;51.654;14.238;2023-06-10T10:12:41;100606.34;;;31.39;37.16
19210;BME280;9738;51.654;14.238;2023-06-10T10:15:08;100597.94;;;31.60;37.77
19210;BME280;9738;51.654;14.238;2023-06-10T10:17:35;100602.25;;;31.71;38.09
19210;BME280;9738;51.654;14.238;2023-06-10T10:20:05;100601.50;;;31.60;34.97
19210;BME280;9738;51.654;14.238;2023-06-10T10:22:38;100592.56;;;31.34;36.68
19210;BME280;9738;51.654;14.238;2023-06-10T10:25:10;100603.31;;;31.36;35.84
19210;BME280;9738;51.654;14.238;2023-06-10T10:27:42;100600.50;;;31.46;36.36
19210;BME280;9738;51.654;14.238;2023-06-10T10:30:10;100600.78;;;31.50;35.30
19210;BME280;9738;51.654;14.238;2023-06-10T10:32:42;100594.81;;;31.71;36.30
19210;BME280;9738;51.654;14.238;2023-06-10T10:35:21;100588.75;;;31.69;35.46
19210;BME280;9738;51.654;14.238;2023-06-10T10:37:50;100593.38;;;31.79;34.54
19210;BME280;9738;51.654;14.238;2023-06-10T10:40:19;100589.34;;;32.00;35.46
19210;BME280;9738;51.654;14.238;2023-06-10T10:42:47;100583.41;;;32.12;34.53
19210;BME280;9738;51.654;14.238;2023-06-10T10:45:13;100576.59;;;32.05;34.17
19210;BME280;9738;51.654;14.238;2023-06-10T10:47:41;100575.47;;;32.06;34.26
19210;BME280;9738;51.654;14.238;2023-06-10T10:50:18;100585.09;;;32.13;34.30
19210;BME280;9738;51.654;14.238;2023-06-10T10:55:16;100579.69;;;32.27;35.33
19210;BME280;9738;51.654;14.238;2023-06-10T10:57:42;100576.63;;;32.28;33.28
19210;BME280;9738;51.654;14.238;2023-06-10T11:00:09;100573.72;;;32.44;35.53
19210;BME280;9738;51.654;14.238;2023-06-10T11:02:40;100573.59;;;32.54;32.65
19210;BME280;9738;51.654;14.238;2023-06-10T11:05:10;100577.53;;;32.72;34.16
19210;BME280;9738;51.654;14.238;2023-06-10T11:07:37;100567.75;;;32.79;33.41
19210;BME280;9738;51.654;14.238;2023-06-10T11:15:11;100561.91;;;33.05;30.38
19210;BME280;9738;51.654;14.238;2023-06-10T11:20:53;100570.22;;;32.57;30.94
19210;BME280;9738;51.654;14.238;2023-06-10T11:26:14;100557.53;;;32.56;32.49
19210;BME280;9738;51.654;14.238;2023-06-10T11:31:20;100552.16;;;32.89;28.25
19210;BME280;9738;51.654;14.238;2023-06-10T11:33:47;100550.53;;;32.88;29.27
19210;BME280;9738;51.654;14.238;2023-06-10T11:36:14;100545.00;;;33.06;27.52
19210;BME280;9738;51.654;14.238;2023-06-10T11:38:41;100549.41;;;32.89;28.06
19210;BME280;9738;51.654;14.238;2023-06-10T11:41:08;100548.66;;;32.35;28.86
19210;BME280;9738;51.654;14.238;2023-06-10T11:43:34;100549.47;;;31.78;30.10
19210;BME280;9738;51.654;14.238;2023-06-10T11:46:00;100554.44;;;31.41;28.88
19210;BME280;9738;51.654;14.238;2023-06-10T11:48:28;100541.19;;;31.43;29.90
19210;BME280;9738;51.654;14.238;2023-06-10T11:50:56;100540.38;;;31.43;29.37
19210;BME280;9738;51.654;14.238;2023-06-10T11:53:22;100535.72;;;31.33;29.79
19210;BME280;9738;51.654;14.238;2023-06-10T11:55:50;100536.66;;;31.18;29.66
19210;BME280;9738;51.654;14.238;2023-06-10T11:58:17;100540.75;;;31.21;30.54
19210;BME280;9738;51.654;14.238;2023-06-10T12:00:45;100532.03;;;31.48;30.59
19210;BME280;9738;51.654;14.238;2023-06-10T12:03:11;100530.06;;;31.54;28.82
19210;BME280;9738;51.654;14.238;2023-06-10T12:05:37;100537.47;;;31.24;29.00
19210;BME280;9738;51.654;14.238;2023-06-10T12:08:11;100534.84;;;30.99;29.94
19210;BME280;9738;51.654;14.238;2023-06-10T12:10:42;100529.16;;;30.75;30.47
19210;BME280;9738;51.654;14.238;2023-06-10T12:13:11;100531.94;;;30.75;30.68
19210;BME280;9738;51.654;14.238;2023-06-10T12:15:37;100528.06;;;30.76;30.09
19210;BME280;9738;51.654;14.238;2023-06-10T12:18:03;100522.44;;;30.96;29.26
19210;BME280;9738;51.654;14.238;2023-06-10T12:20:31;100533.81;;;30.79;29.18
19210;BME280;9738;51.654;14.238;2023-06-10T12:23:08;100535.28;;;30.51;30.52
19210;BME280;9738;51.654;14.238;2023-06-10T12:25:35;100534.28;;;30.01;30.48
19210;BME280;9738;51.654;14.238;2023-06-10T12:28:02;100533.22;;;29.56;30.79
19210;BME280;9738;51.654;14.238;2023-06-10T12:30:28;100540.91;;;29.49;32.64
19210;BME280;9738;51.654;14.238;2023-06-10T12:32:55;100531.00;;;29.43;33.26
19210;BME280;9738;51.654;14.238;2023-06-10T12:35:23;100526.09;;;29.60;34.02
19210;BME280;9738;51.654;14.238;2023-06-10T12:38:03;100518.88;;;30.00;32.66
19210;BME280;9738;51.654;14.238;2023-06-10T12:40:35;100513.53;;;30.55;33.03
19210;BME280;9738;51.654;14.238;2023-06-10T12:43:02;100515.47;;;31.04;28.88
19210;BME280;9738;51.654;14.238;2023-06-10T12:45:33;100517.22;;;31.39;29.10
19210;BME280;9738;51.654;14.238;2023-06-10T12:48:20;100506.78;;;31.65;30.88
19210;BME280;9738;51.654;14.238;2023-06-10T12:50:51;100519.53;;;31.90;28.44
19210;BME280;9738;51.654;14.238;2023-06-10T12:53:18;100524.09;;;32.05;28.54
19210;BME280;9738;51.654;14.238;2023-06-10T12:55:45;100526.31;;;32.03;29.44
19210;BME280;9738;51.654;14.238;2023-06-10T12:58:11;100516.97;;;31.98;29.30
19210;BME280;9738;51.654;14.238;2023-06-10T13:00:38;100508.25;;;31.86;29.19
19210;BME280;9738;51.654;14.238;2023-06-10T13:03:05;100513.84;;;31.81;30.35
19210;BME280;9738;51.654;14.238;2023-06-10T13:05:32;100522.06;;;31.52;29.98
19210;BME280;9738;51.654;14.238;2023-06-10T13:07:59;100536.25;;;31.35;32.26
19210;BME280;9738;51.654;14.238;2023-06-10T13:10:25;100532.22;;;31.17;33.52
19210;BME280;9738;51.654;14.238;2023-06-10T13:12:51;100525.03;;;30.72;34.40